Time;durP1;ratioP1;P1;durP2;ratioP2;P2;SDS_P1;SDS_P2;PMS_P1;PMS_P2;Temp;Humidity;BMP_temperature;BMP_pressure;BME280_temperature;BME280_humidity;BME280_pressure;Samples;Min_cycle;Max_cycle;Signal;HPM_P1;HPM_P2
2022/04/02 00:01:52;;;;;;;6.47;5.38;;;7.40;99.90;;;;;;5011934;28;20018;-82
2022/04/02 00:04:18;;;;;;;6.03;5.43;;;7.40;99.90;;;;;;5013223;28;20093;-82
2022/04/02 00:06:44;;;;;;;5.88;5.28;;;7.40;99.90;;;;;;5011924;28;20426;-83
2022/04/02 00:09:09;;;;;;;5.43;4.93;;;7.40;99.90;;;;;;5011859;28;20029;-83
2022/04/02 00:11:35;;;;;;;5.93;5.20;;;7.40;99.90;;;;;;5012362;28;20443;-83
2022/04/02 00:14:00;;;;;;;6.03;5.43;;;7.40;99.90;;;;;;5011862;28;20476;-82
2022/04/02 00:16:26;;;;;;;5.70;5.10;;;7.40;99.90;;;;;;5013049;28;20477;-83
2022/04/02 00:18:52;;;;;;;6.20;4.78;;;7.40;99.90;;;;;;5012979;28;20033;-82
2022/04/02 00:21:19;;;;;;;5.78;5.10;;;7.40;99.90;;;;;;5011712;28;20026;-83
2022/04/02 00:23:46;;;;;;;6.53;5.78;;;7.40;99.90;;;;;;5011706;28;20086;-83
2022/04/02 00:26:22;;;;;;;5.68;4.78;;;7.40;99.90;;;;;;5011674;28;20059;-82
2022/04/02 00:28:50;;;;;;;7.07;5.40;;;7.40;99.90;;;;;;5013254;28;20026;-82
2022/04/02 00:31:17;;;;;;;5.75;5.00;;;7.40;99.90;;;;;;5012938;28;20026;-82
2022/04/02 00:33:45;;;;;;;5.30;4.65;;;7.40;99.90;;;;;;5012832;28;20092;-82
2022/04/02 00:36:12;;;;;;;5.45;4.88;;;7.40;99.90;;;;;;5012368;28;20480;-83
2022/04/02 00:38:41;;;;;;;5.75;4.70;;;7.30;99.90;;;;;;5011533;28;20018;-83
2022/04/02 00:41:08;;;;;;;5.90;5.13;;;7.30;99.90;;;;;;5012291;28;20022;-82
2022/04/02 00:43:39;;;;;;;5.80;4.93;;;7.40;99.90;;;;;;5011542;28;20030;-83
2022/04/02 00:46:11;;;;;;;5.15;4.65;;;7.50;99.90;;;;;;5011578;28;20033;-83
2022/04/02 00:48:41;;;;;;;5.82;4.78;;;;;;;;;;5015140;28;20022;-83
2022/04/02 00:51:08;;;;;;;4.75;4.15;;;;;;;;;;5016383;28;20080;-83
2022/04/02 00:53:39;;;;;;;6.38;4.70;;;7.50;99.90;;;;;;5014925;28;20053;-83
2022/04/02 00:56:05;;;;;;;5.32;4.63;;;7.50;99.90;;;;;;5016358;28;20093;-83
2022/04/02 00:58:31;;;;;;;4.60;4.20;;;7.50;99.90;;;;;;5016277;28;20030;-83
2022/04/02 01:00:57;;;;;;;4.57;4.18;;;7.40;99.90;;;;;;5016151;28;20022;-83
2022/04/02 01:03:23;;;;;;;5.03;4.45;;;;;;;;;;5014881;28;20026;-83
2022/04/02 01:05:51;;;;;;;4.68;4.03;;;;;;;;;;5016104;28;20393;-83
2022/04/02 01:08:17;;;;;;;4.35;3.95;;;7.20;99.90;;;;;;5014748;28;20503;-83
2022/04/02 01:10:44;;;;;;;4.60;4.20;;;7.30;99.90;;;;;;5014695;28;20113;-82
2022/04/02 01:13:10;;;;;;;4.43;4.03;;;7.30;99.90;;;;;;5014717;28;20408;-83
2022/04/02 01:15:37;;;;;;;5.32;4.00;;;7.30;99.90;;;;;;5015907;28;20026;-83
2022/04/02 01:18:03;;;;;;;4.72;3.92;;;7.30;99.90;;;;;;5014603;28;20037;-83
2022/04/02 01:20:31;;;;;;;5.20;4.28;;;7.20;99.90;;;;;;5015736;28;20080;-83
2022/04/02 01:22:57;;;;;;;4.20;3.80;;;7.20;99.90;;;;;;5015807;28;20029;-82
2022/04/02 01:25:23;;;;;;;4.50;4.07;;;7.20;99.90;;;;;;5015976;28;20029;-83
2022/04/02 01:27:49;;;;;;;4.40;3.90;;;7.20;99.90;;;;;;5014385;28;20021;-83
2022/04/02 01:30:15;;;;;;;4.55;4.13;;;7.20;99.90;;;;;;5015627;28;20026;-83
2022/04/02 01:32:42;;;;;;;4.45;4.05;;;7.20;99.90;;;;;;5015684;28;20026;-82
2022/04/02 01:35:09;;;;;;;4.50;3.80;;;7.20;99.90;;;;;;5014269;28;20033;-83
2022/04/02 01:37:35;;;;;;;4.80;3.90;;;7.20;99.90;;;;;;5015548;28;20030;-83
2022/04/02 01:40:04;;;;;;;4.05;3.67;;;7.20;99.90;;;;;;5014122;28;20021;-83
2022/04/02 01:42:29;;;;;;;5.30;3.78;;;7.20;99.90;;;;;;5014219;28;20080;-82
2022/04/02 01:44:55;;;;;;;4.20;3.65;;;7.20;99.90;;;;;;5014168;28;20018;-83
2022/04/02 01:47:21;;;;;;;4.20;3.80;;;7.20;99.90;;;;;;5014064;28;20370;-83
2022/04/02 01:49:48;;;;;;;4.55;4.15;;;7.20;99.90;;;;;;5013973;28;20033;-83
2022/04/02 01:52:17;;;;;;;4.22;3.83;;;7.20;99.90;;;;;;5015092;28;20357;-83
2022/04/02 01:54:43;;;;;;;4.93;4.03;;;7.20;99.90;;;;;;5013984;28;20068;-83
2022/04/02 01:57:09;;;;;;;5.53;4.38;;;7.10;99.90;;;;;;5015191;28;20030;-83
2022/04/02 01:59:35;;;;;;;4.85;3.90;;;7.10;99.90;;;;;;5013036;28;20022;-83
2022/04/02 02:02:01;;;;;;;6.35;4.40;;;7.10;99.90;;;;;;5013828;28;20022;-83
2022/04/02 02:04:27;;;;;;;4.57;4.10;;;7.10;99.90;;;;;;5013765;28;20022;-83
2022/04/02 02:06:53;;;;;;;5.80;4.47;;;7.10;99.90;;;;;;5013791;28;20503;-83
2022/04/02 02:09:20;;;;;;;5.00;4.45;;;7.20;99.90;;;;;;5013629;28;20131;-83
2022/04/02 02:11:45;;;;;;;5.07;4.57;;;7.10;99.90;;;;;;5013631;28;20071;-83
2022/04/02 02:14:11;;;;;;;5.57;4.47;;;7.10;99.90;;;;;;5014823;28;20049;-83
2022/04/02 02:16:37;;;;;;;5.53;4.47;;;7.10;99.90;;;;;;5013514;28;20026;-82
2022/04/02 02:19:03;;;;;;;5.30;4.65;;;7.10;99.90;;;;;;5013430;28;20022;-83
2022/04/02 02:21:29;;;;;;;6.35;4.65;;;7.10;99.90;;;;;;5014757;28;20030;-83
2022/04/02 02:23:56;;;;;;;5.18;4.18;;;7.10;99.90;;;;;;5013420;28;20486;-83
2022/04/02 02:26:22;;;;;;;5.88;4.50;;;7.10;99.90;;;;;;5013348;28;20026;-83
2022/04/02 02:28:48;;;;;;;7.53;4.80;;;7.10;99.90;;;;;;5014611;28;20029;-83
2022/04/02 02:31:14;;;;;;;6.65;4.97;;;7.10;99.90;;;;;;5014588;28;20022;-82
2022/04/02 02:36:25;;;;;;;6.15;5.00;;;7.10;99.90;;;;;;5014471;28;20076;-82
2022/04/02 02:38:51;;;;;;;6.55;5.00;;;7.10;99.90;;;;;;5014323;28;20417;-82
2022/04/02 02:41:17;;;;;;;7.70;5.60;;;7.00;99.90;;;;;;5014393;28;20022;-83
2022/04/02 02:43:42;;;;;;;6.80;4.88;;;7.00;99.90;;;;;;5013025;28;20396;-83
2022/04/02 02:46:08;;;;;;;6.50;5.07;;;7.00;99.90;;;;;;5013071;28;20022;-83
2022/04/02 02:48:34;;;;;;;8.95;5.50;;;7.00;99.90;;;;;;5012892;28;20470;-83
2022/04/02 02:51:00;;;;;;;5.63;4.72;;;7.00;99.90;;;;;;5012844;28;20037;-83
2022/04/02 02:53:26;;;;;;;7.38;4.88;;;7.00;99.90;;;;;;5014016;28;20050;-83
2022/04/02 02:55:52;;;;;;;7.88;5.22;;;7.00;99.90;;;;;;5014093;28;20072;-83
2022/04/02 02:58:18;;;;;;;5.20;4.53;;;7.00;99.90;;;;;;5014332;28;20389;-83
2022/04/02 03:00:43;;;;;;;7.20;4.75;;;7.00;99.90;;;;;;5012651;28;20033;-83
2022/04/02 03:03:09;;;;;;;6.35;5.20;;;7.00;99.90;;;;;;5012725;28;20030;-83
2022/04/02 03:05:36;;;;;;;6.53;5.20;;;7.00;99.90;;;;;;5013929;28;20045;-83
2022/04/02 03:08:02;;;;;;;7.72;5.05;;;7.00;99.90;;;;;;5013889;28;20068;-83
2022/04/02 03:10:28;;;;;;;6.10;4.85;;;7.00;99.90;;;;;;5013846;28;20054;-83
2022/04/02 03:12:55;;;;;;;7.55;4.97;;;7.00;99.90;;;;;;5013836;28;20036;-83
2022/04/02 03:15:22;;;;;;;5.55;4.63;;;7.00;99.90;;;;;;5012447;28;20033;-83
2022/04/02 03:17:49;;;;;;;6.65;4.43;;;7.00;99.90;;;;;;5013725;28;20049;-83
2022/04/02 03:20:17;;;;;;;7.50;4.57;;;7.00;99.90;;;;;;5012399;28;20072;-83
2022/04/02 03:22:45;;;;;;;6.85;4.55;;;7.00;99.90;;;;;;5013650;28;20057;-83
2022/04/02 03:25:16;;;;;;;6.68;4.25;;;7.00;99.90;;;;;;5012459;28;20616;-83
2022/04/02 03:27:43;;;;;;;7.30;4.80;;;6.90;99.90;;;;;;5012399;28;20026;-83
2022/04/02 03:30:10;;;;;;;6.60;4.65;;;6.90;99.90;;;;;;5012311;28;20036;-83
2022/04/02 03:32:36;;;;;;;6.35;4.82;;;6.90;99.90;;;;;;5013612;28;20396;-83
2022/04/02 03:35:03;;;;;;;7.00;4.45;;;6.90;99.90;;;;;;5013545;28;20028;-82
2022/04/02 03:37:30;;;;;;;9.88;4.68;;;6.90;99.90;;;;;;5012204;28;20030;-82
2022/04/02 03:39:55;;;;;;;5.97;4.68;;;6.90;99.90;;;;;;5012125;28;20034;-82
2022/04/02 03:42:21;;;;;;;7.22;4.38;;;6.90;99.90;;;;;;5012126;28;20440;-82
2022/04/02 03:44:47;;;;;;;5.65;4.55;;;6.90;99.90;;;;;;5012171;28;20021;-82
2022/04/02 03:47:15;;;;;;;5.68;4.28;;;6.90;99.90;;;;;;5012066;28;20100;-83
2022/04/02 03:49:44;;;;;;;9.52;4.50;;;6.90;99.90;;;;;;5012037;28;20026;-83
2022/04/02 03:52:11;;;;;;;6.50;4.43;;;6.90;99.90;;;;;;5011837;28;20064;-82
2022/04/02 03:54:39;;;;;;;6.43;4.68;;;6.90;99.90;;;;;;5013335;28;20370;-83
2022/04/02 03:57:06;;;;;;;7.57;4.25;;;6.90;99.90;;;;;;5012028;28;20026;-82
2022/04/02 03:59:32;;;;;;;8.10;4.43;;;6.90;99.90;;;;;;5011972;28;20033;-82
2022/04/02 04:01:59;;;;;;;6.85;4.35;;;6.90;99.90;;;;;;5012001;28;20377;-82
2022/04/02 04:04:25;;;;;;;10.18;5.22;;;6.90;99.90;;;;;;5011939;28;20485;-82
2022/04/02 04:06:52;;;;;;;7.15;4.38;;;6.90;99.90;;;;;;5011984;28;20018;-82
2022/04/02 04:09:19;;;;;;;7.57;3.92;;;6.90;99.90;;;;;;5013450;28;20450;-82
2022/04/02 04:11:45;;;;;;;6.43;4.32;;;6.80;99.90;;;;;;5013147;28;20110;-82
2022/04/02 04:14:10;;;;;;;6.30;4.30;;;6.80;99.90;;;;;;5013154;28;20100;-82
2022/04/02 04:16:36;;;;;;;9.40;4.07;;;6.80;99.90;;;;;;5013115;28;20034;-83
2022/04/02 04:19:02;;;;;;;7.82;4.35;;;6.80;99.90;;;;;;5011807;28;20030;-82
2022/04/02 04:21:28;;;;;;;6.40;4.28;;;6.80;99.90;;;;;;5013810;28;20109;-82
2022/04/02 04:23:54;;;;;;;10.60;4.03;;;6.80;99.90;;;;;;5015676;28;20049;-82
2022/04/02 04:26:20;;;;;;;5.93;3.92;;;6.80;99.90;;;;;;5017184;28;20371;-82
2022/04/02 04:28:46;;;;;;;15.45;4.30;;;6.80;99.90;;;;;;5015606;28;20113;-82
2022/04/02 04:31:17;;;;;;;9.82;4.18;;;6.80;99.90;;;;;;5015537;28;20184;-82
2022/04/02 04:33:43;;;;;;;5.53;4.07;;;6.80;99.90;;;;;;5016819;28;20025;-82
2022/04/02 04:36:09;;;;;;;5.30;3.97;;;6.80;99.90;;;;;;5016718;28;20389;-82
2022/04/02 04:38:35;;;;;;;8.40;3.90;;;6.80;99.90;;;;;;5015423;28;20022;-82
2022/04/02 04:41:02;;;;;;;7.22;4.40;;;6.80;99.90;;;;;;5015211;28;20500;-82
2022/04/02 04:43:27;;;;;;;4.28;3.60;;;6.80;99.90;;;;;;5016584;28;20014;-82
2022/04/02 04:45:53;;;;;;;5.70;4.32;;;6.80;99.90;;;;;;5016559;28;20105;-82
2022/04/02 04:48:20;;;;;;;8.77;4.38;;;6.80;99.90;;;;;;5016577;28;20026;-82
2022/04/02 04:50:47;;;;;;;8.18;4.25;;;6.80;99.90;;;;;;5015189;28;20084;-82
2022/04/02 04:53:13;;;;;;;7.95;4.82;;;6.80;99.90;;;;;;5016291;28;20116;-82
2022/04/02 04:55:38;;;;;;;9.13;4.03;;;6.80;99.90;;;;;;5016345;28;20026;-82
2022/04/02 04:58:04;;;;;;;5.57;3.95;;;6.70;99.90;;;;;;5015053;28;20565;-82
2022/04/02 05:00:30;;;;;;;8.13;3.95;;;6.70;99.90;;;;;;5014958;28;20030;-82
2022/04/02 05:02:56;;;;;;;5.97;3.92;;;6.70;99.90;;;;;;5015241;28;20390;-82
2022/04/02 05:05:23;;;;;;;5.40;4.00;;;6.70;99.90;;;;;;5014970;28;20041;-82
2022/04/02 05:07:49;;;;;;;4.40;3.65;;;6.70;99.90;;;;;;5015086;28;20026;-82
2022/04/02 05:10:15;;;;;;;5.60;4.30;;;6.70;99.90;;;;;;5014852;28;20057;-82
2022/04/02 05:12:41;;;;;;;6.78;4.28;;;6.70;99.90;;;;;;5014782;28;20034;-82
2022/04/02 05:15:08;;;;;;;6.70;3.95;;;6.70;99.90;;;;;;5014737;28;20026;-82
2022/04/02 05:17:36;;;;;;;6.68;3.95;;;6.70;99.90;;;;;;5015898;28;20026;-82
2022/04/02 05:20:03;;;;;;;7.22;4.18;;;6.70;99.90;;;;;;5014609;28;20030;-82
2022/04/02 05:22:29;;;;;;;4.70;3.90;;;6.70;99.90;;;;;;5016209;28;20389;-82
2022/04/02 05:24:54;;;;;;;4.40;3.90;;;6.70;99.90;;;;;;5015900;28;20025;-82
2022/04/02 05:27:20;;;;;;;6.15;3.75;;;6.70;99.90;;;;;;5014523;28;20030;-82
2022/04/02 05:29:46;;;;;;;6.53;4.00;;;6.70;99.90;;;;;;5014459;28;20025;-82
2022/04/02 05:32:12;;;;;;;4.60;3.78;;;6.70;99.90;;;;;;5015798;28;20105;-82
2022/04/02 05:34:38;;;;;;;5.28;3.80;;;6.70;99.90;;;;;;5014587;28;20026;-82
2022/04/02 05:37:04;;;;;;;8.18;4.15;;;6.70;99.90;;;;;;5014352;28;20036;-82
2022/04/02 05:39:30;;;;;;;5.72;4.15;;;6.70;99.90;;;;;;5015498;28;20045;-82
2022/04/02 05:41:57;;;;;;;4.95;4.45;;;6.70;99.90;;;;;;5014256;28;20491;-82
2022/04/02 05:44:23;;;;;;;4.95;4.00;;;6.70;99.90;;;;;;5014198;28;20029;-82
2022/04/02 05:46:49;;;;;;;5.07;3.92;;;6.60;99.90;;;;;;5014181;28;20026;-82
2022/04/02 05:49:15;;;;;;;4.57;3.72;;;6.60;99.90;;;;;;5014177;28;20073;-82
2022/04/02 05:51:42;;;;;;;5.00;4.40;;;6.60;99.90;;;;;;5013819;28;20025;-82
2022/04/02 05:54:08;;;;;;;5.28;4.47;;;6.70;99.90;;;;;;5014030;28;20124;-82
2022/04/02 05:56:34;;;;;;;4.65;3.72;;;6.70;99.90;;;;;;5015229;28;20060;-82
2022/04/02 05:59:02;;;;;;;5.60;4.30;;;6.70;99.90;;;;;;5015108;28;20033;-82
2022/04/02 06:01:28;;;;;;;5.80;4.53;;;6.70;99.90;;;;;;5015147;28;20056;-82
2022/04/02 06:03:54;;;;;;;6.20;3.80;;;6.70;99.90;;;;;;5015173;28;20026;-82
2022/04/02 06:06:20;;;;;;;7.32;4.68;;;6.70;99.90;;;;;;5015045;28;20496;-82
2022/04/02 06:08:46;;;;;;;4.55;3.63;;;6.70;99.90;;;;;;5013744;28;20022;-82
2022/04/02 06:11:11;;;;;;;6.20;3.67;;;6.60;99.90;;;;;;5013648;28;20034;-82
2022/04/02 06:13:37;;;;;;;4.65;3.60;;;6.70;99.90;;;;;;5014954;28;20029;-82
2022/04/02 06:16:03;;;;;;;5.82;4.50;;;6.60;99.90;;;;;;5013587;28;20048;-82
2022/04/02 06:18:28;;;;;;;5.05;3.85;;;6.60;99.90;;;;;;5013529;28;20370;-82
2022/04/02 06:20:54;;;;;;;5.13;3.58;;;6.60;99.90;;;;;;5013418;28;20117;-82
2022/04/02 06:23:19;;;;;;;5.10;3.83;;;6.60;99.90;;;;;;5013484;28;20116;-82
2022/04/02 06:25:45;;;;;;;4.35;3.58;;;6.60;99.90;;;;;;5013439;28;20018;-82
2022/04/02 06:28:11;;;;;;;4.90;3.85;;;6.60;99.90;;;;;;5013375;28;20044;-82
2022/04/02 06:30:37;;;;;;;4.53;3.33;;;6.60;99.90;;;;;;5013325;28;20470;-82
2022/04/02 06:33:04;;;;;;;4.40;3.30;;;6.60;99.90;;;;;;5013266;28;20026;-82
2022/04/02 06:35:30;;;;;;;5.10;3.63;;;6.70;99.90;;;;;;5013247;28;20056;-82
2022/04/02 06:37:56;;;;;;;5.20;3.67;;;6.60;99.90;;;;;;5014262;28;20113;-82
2022/04/02 06:40:24;;;;;;;4.25;3.63;;;6.60;99.90;;;;;;5014373;28;20033;-82
2022/04/02 06:42:51;;;;;;;4.15;3.38;;;6.60;99.90;;;;;;5014395;28;20030;-82
2022/04/02 06:45:18;;;;;;;4.72;3.95;;;6.60;99.90;;;;;;5014039;28;20029;-82
2022/04/02 06:47:44;;;;;;;4.60;3.65;;;6.70;99.90;;;;;;5014559;28;20042;-82
2022/04/02 06:50:13;;;;;;;4.45;3.70;;;6.70;99.90;;;;;;5014178;28;20072;-82
2022/04/02 06:52:39;;;;;;;4.00;3.67;;;6.70;99.90;;;;;;5014043;28;20076;-82
2022/04/02 06:55:08;;;;;;;5.93;3.63;;;6.70;99.90;;;;;;5014175;28;20033;-82
2022/04/02 06:57:43;;;;;;;4.25;3.33;;;6.70;99.90;;;;;;5012837;28;20071;-82
2022/04/02 07:00:11;;;;;;;4.60;3.65;;;6.70;99.90;;;;;;5014305;28;20465;-82
2022/04/02 07:02:37;;;;;;;5.82;3.60;;;6.70;99.90;;;;;;5012858;28;20491;-82
2022/04/02 07:05:03;;;;;;;3.70;3.30;;;6.70;99.90;;;;;;5012742;28;20064;-83
2022/04/02 07:07:29;;;;;;;4.32;2.80;;;6.70;99.90;;;;;;5014235;28;20037;-82
2022/04/02 07:09:55;;;;;;;4.05;3.28;;;6.70;99.90;;;;;;5014194;28;20033;-82
2022/04/02 07:12:20;;;;;;;4.50;3.22;;;6.70;99.90;;;;;;5013888;28;20390;-82
2022/04/02 07:14:46;;;;;;;3.90;3.30;;;6.70;99.90;;;;;;5013090;28;20022;-82
2022/04/02 07:17:13;;;;;;;4.25;3.20;;;6.70;99.90;;;;;;5012593;28;20025;-82
2022/04/02 07:19:39;;;;;;;4.10;3.15;;;6.70;99.90;;;;;;5012416;28;20029;-83
2022/04/02 07:22:09;;;;;;;9.30;3.30;;;6.70;99.90;;;;;;5013749;28;20097;-83
2022/04/02 07:24:38;;;;;;;3.95;2.92;;;6.70;99.90;;;;;;5013697;28;20024;-82
2022/04/02 07:27:04;;;;;;;3.40;2.90;;;6.70;99.90;;;;;;5012361;28;20018;-82
2022/04/02 07:29:32;;;;;;;4.50;2.70;;;6.70;99.90;;;;;;5012349;28;20041;-82
2022/04/02 07:31:58;;;;;;;3.50;3.17;;;6.70;99.90;;;;;;5012281;28;20030;-83
2022/04/02 07:34:24;;;;;;;4.53;3.30;;;6.70;99.90;;;;;;5013631;28;20101;-83
2022/04/02 07:37:08;;;;;;;4.28;3.15;;;6.70;99.90;;;;;;5012279;28;20050;-82
2022/04/02 07:39:56;;;;;;;3.40;2.88;;;6.70;99.90;;;;;;5012208;28;20030;-83
2022/04/02 07:42:36;;;;;;;3.80;3.40;;;6.70;99.90;;;;;;5012180;28;20057;-83
2022/04/02 07:45:05;;;;;;;5.55;2.88;;;6.70;99.90;;;;;;5012161;28;20396;-82
2022/04/02 07:47:35;;;;;;;4.97;3.40;;;6.70;99.90;;;;;;5013328;28;20080;-83
2022/04/02 07:50:13;;;;;;;5.75;2.80;;;6.70;99.90;;;;;;5013255;28;20040;-83
2022/04/02 07:52:51;;;;;;;3.03;2.65;;;6.70;99.90;;;;;;5011913;28;20045;-83
2022/04/02 07:55:18;;;;;;;3.95;3.00;;;6.70;99.90;;;;;;5013358;28;20076;-83
2022/04/02 07:57:50;;;;;;;4.53;3.35;;;6.70;99.90;;;;;;5012549;28;20022;-82
2022/04/02 08:00:19;;;;;;;3.83;3.00;;;6.80;99.90;;;;;;5011946;28;20125;-83
2022/04/02 08:02:47;;;;;;;3.00;2.63;;;6.70;99.90;;;;;;5011939;28;20026;-83
2022/04/02 08:05:18;;;;;;;4.25;3.10;;;6.80;99.90;;;;;;5011921;28;20081;-83
2022/04/02 08:07:49;;;;;;;7.18;3.10;;;6.70;99.90;;;;;;5013212;28;20065;-83
2022/04/02 08:10:19;;;;;;;5.40;3.65;;;6.80;99.90;;;;;;5013221;28;20026;-83
2022/04/02 08:12:45;;;;;;;4.57;3.25;;;6.80;99.90;;;;;;5011864;28;20034;-83
2022/04/02 08:15:14;;;;;;;5.45;3.22;;;6.80;99.90;;;;;;5011823;28;20112;-83
2022/04/02 08:17:41;;;;;;;4.65;2.88;;;6.70;99.90;;;;;;5013030;28;20025;-83
2022/04/02 08:20:07;;;;;;;3.75;2.70;;;6.70;99.90;;;;;;5011692;28;20121;-83
2022/04/02 08:22:33;;;;;;;4.90;3.00;;;6.70;99.90;;;;;;5013347;28;20053;-83
2022/04/02 08:24:59;;;;;;;6.97;3.55;;;6.70;99.90;;;;;;5013243;28;20054;-83
2022/04/02 08:27:46;;;;;;;5.70;3.30;;;6.70;99.90;;;;;;5011672;28;20425;-83
2022/04/02 08:30:22;;;;;;;4.82;3.50;;;6.70;99.90;;;;;;5012985;28;20049;-83
2022/04/02 08:33:01;;;;;;;7.18;2.92;;;6.70;99.90;;;;;;5012963;28;20033;-83
2022/04/02 08:35:47;;;;;;;5.57;3.30;;;6.70;99.90;;;;;;5012931;28;20037;-83
2022/04/02 08:38:23;;;;;;;4.22;3.38;;;6.70;99.90;;;;;;5011636;28;20389;-83
2022/04/02 08:40:48;;;;;;;5.00;3.95;;;6.70;99.90;;;;;;5011526;28;20397;-84
2022/04/02 08:43:23;;;;;;;4.07;3.30;;;6.70;99.90;;;;;;5011513;28;20018;-83
2022/04/02 08:45:48;;;;;;;7.75;4.00;;;6.70;99.90;;;;;;5011463;28;20022;-83
2022/04/02 08:48:25;;;;;;;4.88;3.70;;;6.70;99.90;;;;;;5012662;28;20029;-83
2022/04/02 08:51:21;;;;;;;4.78;3.47;;;6.70;99.90;;;;;;5012677;28;20499;-83
2022/04/02 08:54:02;;;;;;;4.82;3.88;;;6.70;99.90;;;;;;5011335;28;20045;-83
2022/04/02 08:56:29;;;;;;;4.55;3.85;;;6.70;99.90;;;;;;5011420;28;20034;-84
2022/04/02 08:59:06;;;;;;;5.78;3.70;;;6.70;99.90;;;;;;5011174;28;20030;-84
2022/04/02 09:01:54;;;;;;;7.60;3.90;;;6.70;99.90;;;;;;5012747;28;20026;-84
2022/04/02 09:05:06;;;;;;;6.13;3.72;;;6.70;99.90;;;;;;5011178;28;20038;-84
2022/04/02 09:08:16;;;;;;;4.07;3.30;;;6.80;99.90;;;;;;5013853;28;20022;-84
2022/04/02 09:10:53;;;;;;;4.30;3.38;;;6.80;99.90;;;;;;4990302;28;20401;-84
2022/04/02 09:13:56;;;;;;;4.68;3.78;;;6.80;99.90;;;;;;5014671;28;20033;-84
2022/04/02 09:16:51;;;;;;;5.13;3.63;;;6.80;99.90;;;;;;5014522;28;20064;-84
2022/04/02 09:19:54;;;;;;;5.10;3.47;;;6.80;99.90;;;;;;4986729;28;20030;-84
2022/04/02 09:22:46;;;;;;;5.15;3.50;;;6.80;99.90;;;;;;5015943;28;20033;-84
2022/04/02 09:25:33;;;;;;;4.47;3.60;;;6.80;99.90;;;;;;4977357;28;20044;-84
2022/04/02 09:28:09;;;;;;;5.78;3.53;;;6.80;99.90;;;;;;5015942;28;20080;-84
2022/04/02 09:30:56;;;;;;;4.00;3.38;;;6.80;99.90;;;;;;5015602;28;20057;-84
2022/04/02 09:33:52;;;;;;;4.75;3.85;;;6.80;99.90;;;;;;5014190;28;20040;-84
2022/04/02 09:36:31;;;;;;;8.23;3.55;;;6.80;99.90;;;;;;5014215;28;20481;-84
2022/04/02 09:39:06;;;;;;;5.30;4.28;;;6.80;99.90;;;;;;5014051;28;20096;-84
2022/04/02 09:41:35;;;;;;;5.63;4.32;;;6.80;99.90;;;;;;5014157;28;20050;-84
2022/04/02 09:44:18;;;;;;;8.38;4.47;;;6.80;99.90;;;;;;5014014;28;20022;-84
2022/04/02 09:46:53;;;;;;;7.18;4.18;;;6.80;99.90;;;;;;5014021;28;20030;-84
2022/04/02 09:49:55;;;;;;;5.70;4.40;;;6.80;99.90;;;;;;5014006;28;20496;-84
2022/04/02 09:52:22;;;;;;;7.13;4.57;;;6.80;99.90;;;;;;5015034;28;20128;-84
2022/04/02 09:55:20;;;;;;;4.95;4.07;;;6.80;99.90;;;;;;5014148;28;20080;-84
2022/04/02 09:58:18;;;;;;;6.05;4.32;;;6.80;99.90;;;;;;4995209;28;20370;-84
2022/04/02 10:01:06;;;;;;;5.68;4.30;;;6.80;99.90;;;;;;5013565;28;20022;-85
2022/04/02 10:04:02;;;;;;;4.68;3.92;;;6.80;99.90;;;;;;5013621;28;20028;-84
2022/04/02 10:06:42;;;;;;;5.53;3.97;;;6.80;99.90;;;;;;5013652;28;20037;-84
2022/04/02 10:09:12;;;;;;;4.80;3.80;;;6.80;99.90;;;;;;5015158;28;20385;-85
2022/04/02 10:11:47;;;;;;;3.92;3.47;;;6.80;99.90;;;;;;5013548;28;20467;-85
2022/04/02 10:14:18;;;;;;;5.25;4.22;;;6.80;99.90;;;;;;5013478;28;20049;-85
2022/04/02 10:16:51;;;;;;;5.35;4.18;;;6.80;99.90;;;;;;5014748;28;20029;-85
2022/04/02 10:19:17;;;;;;;5.07;4.10;;;6.80;99.90;;;;;;5012731;28;20517;-85
2022/04/02 10:21:48;;;;;;;4.78;3.80;;;6.80;99.90;;;;;;5013566;28;20028;-84
2022/04/02 10:24:19;;;;;;;6.13;4.68;;;6.80;99.90;;;;;;5014590;28;20026;-85
2022/04/02 10:26:51;;;;;;;5.10;4.03;;;6.80;99.90;;;;;;5014595;28;20025;-85
2022/04/02 10:29:23;;;;;;;5.45;4.13;;;6.70;99.90;;;;;;5013194;28;20026;-85
2022/04/02 10:31:52;;;;;;;4.18;3.78;;;6.70;99.90;;;;;;5013205;28;20026;-85
2022/04/02 10:34:54;;;;;;;7.03;4.35;;;6.70;99.90;;;;;;5013085;28;20365;-85
2022/04/02 10:37:24;;;;;;;7.30;4.30;;;6.70;99.90;;;;;;5014411;28;20513;-85
2022/04/02 10:40:01;;;;;;;6.25;4.65;;;6.70;99.90;;;;;;5012956;28;20062;-85
2022/04/02 10:42:35;;;;;;;6.93;4.18;;;6.70;99.90;;;;;;5014320;28;20433;-85
2022/04/02 10:45:10;;;;;;;7.20;4.70;;;6.70;99.90;;;;;;5012976;28;20481;-84
2022/04/02 10:47:56;;;;;;;8.48;4.57;;;6.70;99.90;;;;;;5013391;28;20179;-85
2022/04/02 10:50:25;;;;;;;5.70;4.47;;;6.70;99.90;;;;;;5014435;28;20096;-85
2022/04/02 10:52:51;;;;;;;5.82;4.88;;;6.70;99.90;;;;;;5012612;28;20057;-85
2022/04/02 10:55:21;;;;;;;6.03;4.55;;;6.70;99.90;;;;;;5012678;28;20536;-85
2022/04/02 10:57:47;;;;;;;8.57;4.88;;;6.70;99.90;;;;;;5013973;28;20033;-85
2022/04/02 11:00:14;;;;;;;9.35;4.55;;;6.70;99.90;;;;;;5012465;28;20073;-85
2022/04/02 11:02:50;;;;;;;6.15;4.43;;;6.70;99.90;;;;;;5012934;28;20465;-85
2022/04/02 11:05:17;;;;;;;7.57;4.68;;;6.70;99.90;;;;;;5012649;28;20100;-85
2022/04/02 11:07:49;;;;;;;4.88;4.07;;;6.70;99.90;;;;;;5013820;28;20022;-85
2022/04/02 11:10:21;;;;;;;6.57;4.07;;;6.80;99.90;;;;;;5012546;28;20061;-85
2022/04/02 11:12:58;;;;;;;4.80;4.03;;;6.80;99.90;;;;;;5013797;28;20049;-85
2022/04/02 11:15:24;;;;;;;7.28;4.80;;;6.80;99.90;;;;;;5012476;28;20397;-85
2022/04/02 11:17:56;;;;;;;5.88;4.55;;;6.80;99.90;;;;;;5012365;28;20030;-86
2022/04/02 11:20:27;;;;;;;5.47;4.47;;;6.80;99.90;;;;;;5012347;28;20066;-86
2022/04/02 11:22:59;;;;;;;9.63;4.63;;;6.80;99.90;;;;;;5013146;28;20080;-86
2022/04/02 11:25:36;;;;;;;7.35;4.57;;;6.80;99.90;;;;;;5012265;28;20026;-86
2022/04/02 11:28:09;;;;;;;5.95;4.63;;;6.80;99.90;;;;;;5012240;28;20018;-86
2022/04/02 11:30:42;;;;;;;5.88;4.40;;;6.80;99.90;;;;;;5011709;28;20084;-86
2022/04/02 11:33:12;;;;;;;6.13;4.80;;;6.80;99.90;;;;;;5013161;28;20026;-86
2022/04/02 11:35:59;;;;;;;8.73;4.25;;;6.80;99.90;;;;;;5013609;28;20477;-86
2022/04/02 11:38:42;;;;;;;6.03;4.22;;;6.80;99.90;;;;;;5012043;28;20038;-86
2022/04/02 11:41:11;;;;;;;7.20;4.20;;;6.80;99.90;;;;;;5011947;28;20026;-85
2022/04/02 11:43:41;;;;;;;6.60;4.45;;;6.80;99.90;;;;;;5011944;28;20334;-85
2022/04/02 11:46:09;;;;;;;6.05;3.97;;;6.80;99.90;;;;;;5012031;28;20022;-84
2022/04/02 11:48:38;;;;;;;5.60;3.85;;;6.80;99.90;;;;;;5011902;28;20030;-85
2022/04/02 11:51:14;;;;;;;4.95;3.80;;;6.80;99.90;;;;;;5011797;28;20026;-85
2022/04/02 11:53:41;;;;;;;7.55;4.10;;;6.80;99.90;;;;;;5011711;28;20145;-85
2022/04/02 11:56:21;;;;;;;5.70;4.50;;;6.80;99.90;;;;;;5011870;28;20030;-85
2022/04/02 11:58:49;;;;;;;5.55;4.57;;;6.80;99.90;;;;;;5011834;28;20117;-85
2022/04/02 12:01:15;;;;;;;7.07;4.50;;;6.80;99.90;;;;;;5012052;28;20033;-86
2022/04/02 12:03:41;;;;;;;5.95;4.60;;;6.80;99.90;;;;;;5011811;28;20025;-85
2022/04/02 12:06:15;;;;;;;6.70;4.35;;;6.80;99.90;;;;;;5011753;28;20053;-86
2022/04/02 12:08:43;;;;;;;5.85;4.95;;;6.80;99.90;;;;;;5011775;28;20037;-86
2022/04/02 12:11:10;;;;;;;5.88;4.38;;;6.80;99.90;;;;;;5011775;28;20057;-86
2022/04/02 12:13:36;;;;;;;5.60;4.50;;;6.70;99.90;;;;;;5011723;28;20080;-86
2022/04/02 12:16:09;;;;;;;5.80;4.20;;;6.80;99.90;;;;;;5012237;28;20026;-86
2022/04/02 12:18:57;;;;;;;5.35;4.43;;;6.70;99.90;;;;;;5011773;28;20477;-86
2022/04/02 12:21:33;;;;;;;5.20;4.35;;;6.70;99.90;;;;;;5012866;28;20384;-85
2022/04/02 12:24:04;;;;;;;6.93;4.43;;;6.80;99.90;;;;;;5011589;28;20117;-85
2022/04/02 12:26:30;;;;;;;6.25;4.20;;;6.70;99.90;;;;;;5011592;28;20477;-86
2022/04/02 12:28:58;;;;;;;6.82;4.57;;;6.70;99.90;;;;;;5011543;28;20319;-86
2022/04/02 12:31:28;;;;;;;7.78;4.68;;;6.70;99.90;;;;;;5011491;28;20393;-86
2022/04/02 12:33:54;;;;;;;7.03;4.55;;;6.80;99.90;;;;;;5011519;28;20374;-86
2022/04/02 12:36:42;;;;;;;6.03;4.40;;;6.70;99.90;;;;;;5011585;28;20034;-86
2022/04/02 12:39:10;;;;;;;7.93;4.68;;;6.80;99.90;;;;;;5012893;28;20033;-86
2022/04/02 12:41:46;;;;;;;4.65;4.07;;;6.80;99.90;;;;;;5011386;28;20034;-86
2022/04/02 12:44:13;;;;;;;6.75;3.80;;;6.70;99.90;;;;;;5016263;28;20377;-86
2022/04/02 12:46:38;;;;;;;4.90;3.97;;;6.80;99.90;;;;;;5015434;28;20120;-87
2022/04/02 12:49:04;;;;;;;5.32;4.28;;;6.70;99.90;;;;;;5015076;28;20028;-86
2022/04/02 12:51:30;;;;;;;5.45;4.65;;;6.70;99.90;;;;;;5014906;28;20412;-87
2022/04/02 12:54:01;;;;;;;6.13;4.25;;;6.70;99.90;;;;;;5015063;28;20041;-87
2022/04/02 12:56:33;;;;;;;4.85;4.07;;;6.70;99.90;;;;;;5015044;28;20021;-87
2022/04/02 12:58:59;;;;;;;5.75;4.28;;;6.70;99.90;;;;;;5014976;28;20022;-87
2022/04/02 13:01:25;;;;;;;5.38;4.43;;;6.70;99.90;;;;;;5014828;28;20029;-87
2022/04/02 13:04:07;;;;;;;4.82;3.70;;;6.70;99.90;;;;;;5016416;28;20029;-87
2022/04/02 13:06:34;;;;;;;7.85;4.22;;;6.70;99.90;;;;;;5014861;28;20052;-87
2022/04/02 13:09:04;;;;;;;4.95;4.18;;;6.70;99.90;;;;;;5014716;28;20150;-87
2022/04/02 13:11:58;;;;;;;4.57;4.07;;;6.70;99.90;;;;;;5014749;28;20057;-87
2022/04/02 13:14:30;;;;;;;5.53;4.57;;;6.70;99.90;;;;;;5014642;28;20030;-87
2022/04/02 13:17:09;;;;;;;5.32;4.20;;;6.70;99.90;;;;;;5014639;28;20037;-87